KCEW/CEW METAR and TAF weather

Enter ICAO airport designator
Station Type Date Time Source
KCEW METAR 2021/09/24 03:53 UTC NOAA

KCEW 240353Z AUTO 00000KT 10SM CLR 13/12 A3006 RMK AO2 SLP176 T01330122


Station Type Date Time Source
KCEW Decoded METAR 2021/09/24 03:53 UTC NOAA

CRESTVIEW SIKES AIRPORT, FL, United States (KCEW) 30-46N 086-31W 55M
Sep 23, 2021 - 11:53 PM EDT / 2021.09.24 0353 UTC
Wind: Calm:0
Visibility: 10 mile(s):0
Sky conditions: clear
Temperature: 55.9 F (13.3 C)
Dew Point: 54.0 F (12.2 C)
Relative Humidity: 93%
Pressure (altimeter): 30.06 in. Hg (1017 hPa)
ob: KCEW 240353Z AUTO 00000KT 10SM CLR 13/12 A3006 RMK AO2 SLP176 T01330122
cycle: 4

Station Type Date Time Source
KCEW TAF UTC NOAA

Error!

Example: see airport list